Time;durP1;ratioP1;P1;durP2;ratioP2;P2;SDS_P1;SDS_P2;PMS_P1;PMS_P2;Temp;Humidity;BMP_temperature;BMP_pressure;BME280_temperature;BME280_humidity;BME280_pressure;Samples;Min_cycle;Max_cycle;Signal;HPM_P1;HPM_P2
2021/09/27 00:00:20;;;;;;;8.20;6.47;;;13.50;99.90;;;;;;477965;248;28817;-75
2021/09/27 00:02:22;;;;;;;7.43;5.53;;;13.50;99.90;;;;;;477955;248;29013;-75
2021/09/27 00:04:23;;;;;;;6.50;5.90;;;13.50;99.90;;;;;;477985;248;29732;-76
2021/09/27 00:06:24;;;;;;;6.13;5.47;;;13.50;99.90;;;;;;478011;248;29275;-76
2021/09/27 00:08:25;;;;;;;6.10;5.50;;;13.50;99.90;;;;;;477980;248;28462;-76
2021/09/27 00:10:27;;;;;;;7.07;5.33;;;13.50;99.90;;;;;;477966;248;28885;-75
2021/09/27 00:12:28;;;;;;;5.43;4.93;;;13.40;99.90;;;;;;477988;248;28361;-76
2021/09/27 00:14:29;;;;;;;6.00;5.40;;;13.40;99.90;;;;;;477995;248;28895;-76
2021/09/27 00:16:31;;;;;;;5.73;5.20;;;13.40;99.90;;;;;;478005;248;28190;-75
2021/09/27 00:18:32;;;;;;;6.00;5.43;;;13.40;99.90;;;;;;478016;248;28555;-76
2021/09/27 00:20:34;;;;;;;6.67;5.80;;;;;;;;;;477989;248;28395;-76
2021/09/27 00:22:35;;;;;;;6.30;5.60;;;13.30;99.90;;;;;;486510;242;26655;-76
2021/09/27 00:24:37;;;;;;;8.90;5.90;;;13.30;99.90;;;;;;484280;244;28264;-76
2021/09/27 00:26:38;;;;;;;7.43;6.43;;;13.30;99.90;;;;;;484266;244;28495;-75
2021/09/27 00:28:39;;;;;;;6.47;5.47;;;13.30;99.90;;;;;;484245;244;28736;-76
2021/09/27 00:30:40;;;;;;;6.23;5.63;;;13.30;99.90;;;;;;484246;244;28323;-76
2021/09/27 00:32:42;;;;;;;5.60;5.10;;;13.30;99.90;;;;;;484277;244;28248;-75
2021/09/27 00:34:43;;;;;;;5.90;5.30;;;13.40;99.90;;;;;;484293;243;28346;-76
2021/09/27 00:36:44;;;;;;;6.50;5.80;;;13.40;99.90;;;;;;484241;244;28878;-76
2021/09/27 00:38:45;;;;;;;6.00;5.40;;;13.50;99.90;;;;;;484252;244;28508;-75
2021/09/27 00:40:47;;;;;;;7.30;5.80;;;13.50;99.90;;;;;;484299;244;28626;-76
2021/09/27 00:42:48;;;;;;;7.00;5.47;;;13.60;99.90;;;;;;484306;244;29226;-76
2021/09/27 00:44:49;;;;;;;6.27;5.43;;;13.60;99.90;;;;;;484268;244;28537;-76
2021/09/27 00:46:52;;;;;;;6.27;5.67;;;13.70;99.90;;;;;;484253;244;28260;-76
2021/09/27 00:48:52;;;;;;;5.90;5.30;;;13.70;99.90;;;;;;484190;244;28093;-76
2021/09/27 00:50:53;;;;;;;6.20;5.33;;;13.70;99.90;;;;;;484268;244;28841;-76
2021/09/27 00:52:54;;;;;;;5.10;4.17;;;13.70;99.90;;;;;;484288;244;28778;-76
2021/09/27 00:54:55;;;;;;;5.70;5.10;;;13.70;99.90;;;;;;484301;244;28427;-75
2021/09/27 00:56:57;;;;;;;6.87;5.20;;;13.80;99.90;;;;;;484265;244;28163;-76
2021/09/27 00:58:58;;;;;;;6.10;4.57;;;13.80;99.90;;;;;;484303;244;28829;-76
2021/09/27 01:00:59;;;;;;;5.60;5.00;;;13.80;99.90;;;;;;484301;244;28560;-76
2021/09/27 01:03:00;;;;;;;5.57;5.07;;;13.70;99.90;;;;;;484306;244;28718;-76
2021/09/27 01:05:02;;;;;;;5.23;4.70;;;13.70;99.90;;;;;;484277;244;29200;-76
2021/09/27 01:07:03;;;;;;;5.63;4.47;;;13.70;99.90;;;;;;484267;244;28382;-75
2021/09/27 01:09:04;;;;;;;6.00;4.90;;;13.70;99.90;;;;;;484310;244;28366;-75
2021/09/27 01:11:05;;;;;;;5.23;4.73;;;13.60;99.90;;;;;;484247;244;28292;-77
2021/09/27 01:13:07;;;;;;;4.87;4.37;;;13.60;99.90;;;;;;484281;244;28338;-75
2021/09/27 01:15:08;;;;;;;4.60;4.20;;;13.60;99.90;;;;;;484252;244;28221;-76
2021/09/27 01:17:09;;;;;;;4.80;4.30;;;13.50;99.90;;;;;;484249;244;28260;-76
2021/09/27 01:19:10;;;;;;;5.43;4.57;;;13.50;99.90;;;;;;484277;244;28785;-76
2021/09/27 01:21:12;;;;;;;5.23;4.73;;;13.50;99.90;;;;;;484308;244;28508;-76
2021/09/27 01:23:13;;;;;;;5.30;4.80;;;13.40;99.90;;;;;;484270;244;28528;-76
2021/09/27 01:25:14;;;;;;;5.10;4.60;;;13.40;99.90;;;;;;484282;244;29277;-75
2021/09/27 01:27:15;;;;;;;5.00;4.50;;;13.40;99.90;;;;;;484253;244;28867;-75
2021/09/27 01:29:18;;;;;;;4.43;4.03;;;;;;;;;;484280;244;28509;-75
2021/09/27 01:31:19;;;;;;;4.73;4.30;;;13.30;99.90;;;;;;484231;244;27225;-75
2021/09/27 01:33:21;;;;;;;4.60;4.20;;;13.20;99.90;;;;;;484281;243;29659;-76
2021/09/27 01:35:22;;;;;;;5.10;4.60;;;13.20;99.90;;;;;;484274;243;28459;-75
2021/09/27 01:37:23;;;;;;;5.20;4.70;;;13.20;99.90;;;;;;484377;243;28710;-76
2021/09/27 01:39:24;;;;;;;5.10;4.70;;;13.10;99.90;;;;;;484418;244;28463;-77
2021/09/27 01:41:25;;;;;;;5.73;5.13;;;13.10;99.90;;;;;;477044;243;28435;-76
2021/09/27 01:43:27;;;;;;;5.40;4.67;;;13.10;99.90;;;;;;475682;250;28343;-77
2021/09/27 01:45:28;;;;;;;5.33;4.83;;;13.10;99.90;;;;;;472013;251;28427;-77
2021/09/27 01:47:29;;;;;;;4.40;4.00;;;13.10;99.90;;;;;;469917;252;28204;-77
2021/09/27 01:49:32;;;;;;;5.80;5.20;;;;;;;;;;481058;247;28333;-77
2021/09/27 01:51:33;;;;;;;5.53;4.70;;;13.00;99.90;;;;;;480381;247;28005;-77
2021/09/27 01:53:34;;;;;;;5.20;4.70;;;13.10;99.90;;;;;;480452;246;28440;-76
2021/09/27 01:55:35;;;;;;;4.80;4.40;;;13.00;99.90;;;;;;480398;246;28131;-76
2021/09/27 01:57:37;;;;;;;5.20;4.70;;;13.00;99.90;;;;;;480437;246;28341;-76
2021/09/27 01:59:38;;;;;;;5.20;4.70;;;13.00;99.90;;;;;;480357;246;28475;-76
2021/09/27 02:01:39;;;;;;;5.87;5.17;;;13.00;99.90;;;;;;480462;246;28691;-76
2021/09/27 02:03:40;;;;;;;6.83;4.73;;;13.00;99.90;;;;;;480366;247;28318;-76
2021/09/27 02:05:42;;;;;;;4.87;4.37;;;13.00;99.90;;;;;;480382;246;28378;-76
2021/09/27 02:07:43;;;;;;;5.23;4.73;;;13.00;99.90;;;;;;480406;246;28501;-76
2021/09/27 02:09:44;;;;;;;4.83;4.33;;;13.00;99.90;;;;;;480368;246;28924;-76
2021/09/27 02:11:45;;;;;;;4.90;4.40;;;13.00;99.90;;;;;;480436;246;29082;-76
2021/09/27 02:13:47;;;;;;;4.70;4.30;;;13.00;99.90;;;;;;480346;247;28891;-77
2021/09/27 02:15:48;;;;;;;4.73;4.33;;;13.00;99.90;;;;;;480383;246;28101;-77
2021/09/27 02:17:49;;;;;;;5.30;4.80;;;13.00;99.90;;;;;;480367;246;28797;-77
2021/09/27 02:19:50;;;;;;;5.97;4.40;;;13.00;99.90;;;;;;480403;246;28118;-77
2021/09/27 02:21:52;;;;;;;5.10;4.20;;;13.00;99.90;;;;;;480382;246;27982;-77
2021/09/27 02:23:53;;;;;;;4.67;4.17;;;12.90;99.90;;;;;;480316;246;28343;-76
2021/09/27 02:25:55;;;;;;;4.87;4.37;;;12.90;99.90;;;;;;480310;246;28169;-77
2021/09/27 02:27:55;;;;;;;4.93;4.30;;;12.90;99.90;;;;;;480267;246;28396;-77
2021/09/27 02:29:57;;;;;;;5.13;4.63;;;12.90;99.90;;;;;;480313;246;28519;-77
2021/09/27 02:31:58;;;;;;;5.17;4.67;;;12.90;99.90;;;;;;480326;246;28387;-77
2021/09/27 02:33:59;;;;;;;5.13;4.70;;;12.80;99.90;;;;;;480396;246;29337;-77
2021/09/27 02:36:00;;;;;;;6.40;5.27;;;12.80;99.90;;;;;;480320;246;28747;-77
2021/09/27 02:38:02;;;;;;;5.30;4.60;;;12.80;99.90;;;;;;480387;246;28910;-77
2021/09/27 02:40:03;;;;;;;4.90;4.47;;;12.80;99.90;;;;;;480429;247;28310;-76
2021/09/27 02:42:04;;;;;;;4.70;4.30;;;12.80;99.90;;;;;;480342;246;28346;-77
2021/09/27 02:44:05;;;;;;;5.43;4.90;;;12.70;99.90;;;;;;480333;246;28212;-76
2021/09/27 02:46:07;;;;;;;6.63;5.33;;;12.80;99.90;;;;;;480296;245;28350;-77
2021/09/27 02:48:15;;;;;;;6.73;5.27;;;12.70;99.90;;;;;;480408;246;28035;-76
2021/09/27 02:50:12;;;;;;;5.80;4.10;;;12.70;99.90;;;;;;479900;247;28182;-77
2021/09/27 02:52:13;;;;;;;5.80;5.00;;;12.70;99.90;;;;;;480386;246;28509;-77
2021/09/27 02:54:14;;;;;;;5.10;4.50;;;12.70;99.90;;;;;;480312;246;28976;-77
2021/09/27 02:56:16;;;;;;;5.53;4.80;;;12.70;99.90;;;;;;480281;246;28786;-77
2021/09/27 02:58:17;;;;;;;5.70;5.00;;;12.70;99.90;;;;;;480264;246;29055;-77
2021/09/27 03:00:18;;;;;;;5.97;4.83;;;12.80;99.90;;;;;;480326;246;28751;-77
2021/09/27 03:02:19;;;;;;;4.90;4.40;;;12.80;99.90;;;;;;480339;246;28451;-76
2021/09/27 03:04:21;;;;;;;5.10;4.60;;;12.70;99.90;;;;;;480326;246;27982;-77
2021/09/27 03:06:22;;;;;;;7.43;5.50;;;12.70;99.90;;;;;;480298;246;28316;-77
2021/09/27 03:08:23;;;;;;;5.83;5.13;;;12.70;99.90;;;;;;480302;246;28411;-76
2021/09/27 03:10:24;;;;;;;6.97;5.33;;;12.80;99.90;;;;;;480302;246;28405;-76
2021/09/27 03:12:26;;;;;;;6.20;5.60;;;12.80;99.90;;;;;;480373;246;28204;-76
2021/09/27 03:14:27;;;;;;;7.43;5.70;;;12.80;99.90;;;;;;480414;246;28487;-76
2021/09/27 03:16:28;;;;;;;5.87;5.20;;;12.80;99.90;;;;;;480310;246;28301;-76
2021/09/27 03:18:29;;;;;;;7.50;5.43;;;12.70;99.90;;;;;;480279;246;29236;-77
2021/09/27 03:20:31;;;;;;;6.57;5.47;;;12.70;99.90;;;;;;480326;246;28395;-77
2021/09/27 03:22:32;;;;;;;5.80;5.20;;;12.80;99.90;;;;;;480312;246;28792;-76
2021/09/27 03:24:33;;;;;;;6.33;5.70;;;12.80;99.90;;;;;;480299;246;28510;-76
2021/09/27 03:26:34;;;;;;;6.87;5.40;;;12.80;99.90;;;;;;480279;246;28230;-76
2021/09/27 03:28:36;;;;;;;6.90;5.43;;;12.70;99.90;;;;;;480255;246;28466;-77
2021/09/27 03:30:37;;;;;;;6.07;5.30;;;12.70;99.90;;;;;;480272;246;28246;-77
2021/09/27 03:32:38;;;;;;;6.50;4.97;;;12.70;99.90;;;;;;480260;246;28093;-76
2021/09/27 03:34:39;;;;;;;5.17;4.67;;;12.60;99.90;;;;;;480277;246;28498;-76
2021/09/27 03:36:41;;;;;;;5.27;4.60;;;12.60;99.90;;;;;;480288;246;28228;-76
2021/09/27 03:38:42;;;;;;;5.23;4.73;;;12.60;99.90;;;;;;480279;246;28385;-76
2021/09/27 03:40:43;;;;;;;6.53;5.37;;;12.50;99.90;;;;;;480253;246;28566;-76
2021/09/27 03:42:44;;;;;;;6.90;5.27;;;12.50;99.90;;;;;;480226;246;28790;-76
2021/09/27 03:44:47;;;;;;;6.33;5.40;;;12.50;99.90;;;;;;480230;246;28407;-76
2021/09/27 03:46:48;;;;;;;7.07;5.50;;;12.50;99.90;;;;;;480245;246;28572;-76
2021/09/27 03:48:49;;;;;;;5.60;5.00;;;12.50;99.90;;;;;;480264;246;28774;-77
2021/09/27 03:50:51;;;;;;;5.63;5.03;;;12.50;99.90;;;;;;480261;246;28570;-76
2021/09/27 03:52:52;;;;;;;5.37;4.70;;;12.40;99.90;;;;;;480261;246;28410;-77
2021/09/27 03:54:53;;;;;;;5.37;4.73;;;12.40;99.90;;;;;;480226;245;28398;-76
2021/09/27 03:56:54;;;;;;;5.20;4.70;;;12.50;99.90;;;;;;480227;246;28336;-76
2021/09/27 03:58:57;;;;;;;5.27;4.63;;;12.40;99.90;;;;;;480260;246;28330;-76
2021/09/27 04:00:57;;;;;;;6.10;5.37;;;12.40;99.90;;;;;;480225;247;28211;-76
2021/09/27 04:02:59;;;;;;;5.20;4.70;;;12.40;99.90;;;;;;480281;246;28102;-77
2021/09/27 04:05:00;;;;;;;4.77;4.30;;;12.40;99.90;;;;;;480116;247;28045;-76
2021/09/27 04:07:01;;;;;;;5.50;4.70;;;12.40;99.90;;;;;;480295;245;28437;-76
2021/09/27 04:09:02;;;;;;;6.30;5.47;;;12.40;99.90;;;;;;480279;246;28312;-77
2021/09/27 04:11:03;;;;;;;6.13;4.60;;;12.40;99.90;;;;;;480275;245;28639;-76
2021/09/27 04:13:04;;;;;;;5.23;4.60;;;12.40;99.90;;;;;;480327;245;28868;-75
2021/09/27 04:15:06;;;;;;;5.53;4.93;;;12.50;99.90;;;;;;480354;246;28733;-76
2021/09/27 04:17:07;;;;;;;5.13;4.60;;;12.60;99.90;;;;;;480289;246;28216;-76
2021/09/27 04:19:08;;;;;;;6.10;4.80;;;12.50;99.90;;;;;;480273;246;28261;-76
2021/09/27 04:21:09;;;;;;;5.90;5.07;;;12.50;99.90;;;;;;480277;246;28209;-76
2021/09/27 04:23:11;;;;;;;5.13;4.60;;;12.50;99.90;;;;;;480335;241;28207;-76
2021/09/27 04:25:12;;;;;;;5.20;4.57;;;12.50;99.90;;;;;;480293;246;28160;-76
2021/09/27 04:27:13;;;;;;;5.07;4.57;;;12.50;99.90;;;;;;480334;246;28184;-76
2021/09/27 04:29:15;;;;;;;5.93;5.33;;;12.50;99.90;;;;;;480256;246;28237;-76
2021/09/27 04:31:16;;;;;;;5.37;4.80;;;12.50;99.90;;;;;;480323;245;28355;-76
2021/09/27 04:33:17;;;;;;;5.03;4.53;;;12.40;99.90;;;;;;480172;246;28237;-76
2021/09/27 04:35:18;;;;;;;5.00;4.50;;;12.30;99.90;;;;;;480275;246;28837;-76
2021/09/27 04:37:19;;;;;;;5.30;4.80;;;12.30;99.90;;;;;;480297;245;28623;-76
2021/09/27 04:39:21;;;;;;;5.80;4.87;;;12.30;99.90;;;;;;480272;246;28572;-75
2021/09/27 04:41:22;;;;;;;4.87;4.40;;;12.30;99.90;;;;;;480263;245;28317;-76
2021/09/27 04:43:23;;;;;;;4.60;4.20;;;12.30;99.90;;;;;;480257;245;27945;-75
2021/09/27 04:45:24;;;;;;;4.77;4.37;;;12.20;99.90;;;;;;481752;246;28132;-76
2021/09/27 04:47:26;;;;;;;4.53;4.13;;;12.20;99.90;;;;;;481738;246;28274;-75
2021/09/27 04:49:27;;;;;;;4.13;3.73;;;12.20;99.90;;;;;;481750;246;28143;-76
2021/09/27 04:51:28;;;;;;;4.90;4.40;;;12.20;99.90;;;;;;481754;246;28260;-76
2021/09/27 04:53:30;;;;;;;5.17;4.67;;;12.30;99.90;;;;;;481735;246;28207;-76
2021/09/27 04:55:31;;;;;;;3.83;3.53;;;12.30;99.90;;;;;;481681;246;28411;-75
2021/09/27 04:57:32;;;;;;;4.40;3.90;;;12.40;99.90;;;;;;481764;246;28357;-75
2021/09/27 04:59:33;;;;;;;4.80;4.40;;;12.40;99.90;;;;;;481756;246;28838;-76
2021/09/27 05:01:36;;;;;;;3.80;3.50;;;12.40;99.90;;;;;;481733;246;28896;-76
2021/09/27 05:03:36;;;;;;;3.90;3.50;;;12.40;99.90;;;;;;481647;246;28601;-76
2021/09/27 05:05:37;;;;;;;4.57;3.70;;;12.50;99.90;;;;;;481739;246;28239;-76
2021/09/27 05:07:38;;;;;;;5.00;4.07;;;12.40;99.90;;;;;;481771;246;28042;-75
2021/09/27 05:09:40;;;;;;;3.70;3.40;;;12.40;99.90;;;;;;481733;246;28477;-75
2021/09/27 05:11:45;;;;;;;4.30;3.80;;;12.40;99.90;;;;;;481803;246;28471;-78
2021/09/27 05:13:42;;;;;;;4.07;3.67;;;12.40;99.90;;;;;;480543;246;28341;-76
2021/09/27 05:15:45;;;;;;;4.87;4.43;;;;;;;;;;481768;246;28391;-76
2021/09/27 05:17:46;;;;;;;4.20;3.80;;;12.40;99.90;;;;;;471479;251;27436;-77
2021/09/27 05:19:47;;;;;;;4.90;4.50;;;12.50;99.90;;;;;;475080;249;28017;-77
2021/09/27 05:21:48;;;;;;;4.50;4.10;;;12.50;99.90;;;;;;480234;236;28087;-77
2021/09/27 05:23:49;;;;;;;4.00;3.60;;;12.50;99.90;;;;;;481382;247;28235;-76
2021/09/27 05:25:51;;;;;;;4.27;3.87;;;12.50;99.90;;;;;;481358;246;28399;-77
2021/09/27 05:27:52;;;;;;;5.00;4.23;;;12.50;99.90;;;;;;481377;246;28115;-76
2021/09/27 05:29:53;;;;;;;5.10;4.47;;;12.50;99.90;;;;;;481371;246;28585;-77
2021/09/27 05:31:54;;;;;;;6.00;4.40;;;12.40;99.90;;;;;;481438;246;29508;-77
2021/09/27 05:33:56;;;;;;;4.13;3.80;;;12.40;99.90;;;;;;481405;246;28641;-77
2021/09/27 05:35:57;;;;;;;5.73;4.00;;;12.50;99.90;;;;;;481396;246;28181;-77
2021/09/27 05:37:58;;;;;;;4.73;4.30;;;12.50;99.90;;;;;;481417;246;28247;-77
2021/09/27 05:39:59;;;;;;;4.80;4.40;;;12.50;99.90;;;;;;481320;246;28111;-77
2021/09/27 05:42:01;;;;;;;6.63;4.10;;;12.50;99.90;;;;;;481394;246;28230;-77
2021/09/27 05:44:02;;;;;;;4.90;4.40;;;12.50;99.90;;;;;;481379;246;28229;-77
2021/09/27 05:46:03;;;;;;;4.90;4.47;;;12.50;99.90;;;;;;481372;246;28035;-77
2021/09/27 05:48:04;;;;;;;6.03;4.83;;;12.40;99.90;;;;;;481372;246;28193;-77
2021/09/27 05:50:06;;;;;;;4.70;4.20;;;12.50;99.90;;;;;;481362;246;28025;-77
2021/09/27 05:52:07;;;;;;;5.37;4.87;;;12.50;99.90;;;;;;481364;246;28277;-77
2021/09/27 05:54:08;;;;;;;5.50;4.90;;;12.50;99.90;;;;;;481368;246;28763;-76
2021/09/27 05:56:10;;;;;;;5.43;4.33;;;12.50;99.90;;;;;;481386;246;28509;-77
2021/09/27 05:58:11;;;;;;;4.83;4.33;;;12.50;99.90;;;;;;481385;246;28462;-77
2021/09/27 06:00:12;;;;;;;4.70;4.30;;;12.50;99.90;;;;;;481350;246;28171;-76
2021/09/27 06:02:13;;;;;;;9.93;4.30;;;12.60;99.90;;;;;;481414;246;28382;-79
2021/09/27 06:04:15;;;;;;;5.00;4.50;;;12.60;99.90;;;;;;481406;246;28037;-77
2021/09/27 06:06:16;;;;;;;4.90;4.50;;;12.70;99.90;;;;;;481409;246;28146;-78
2021/09/27 06:08:17;;;;;;;5.23;4.73;;;12.80;99.90;;;;;;481373;246;28224;-77
2021/09/27 06:10:18;;;;;;;4.60;4.10;;;12.80;99.90;;;;;;481417;245;27998;-77
2021/09/27 06:12:21;;;;;;;4.63;4.03;;;12.90;99.90;;;;;;481438;246;28246;-77
2021/09/27 06:14:21;;;;;;;4.57;4.17;;;12.90;99.90;;;;;;481358;246;28330;-77
2021/09/27 06:16:22;;;;;;;4.73;4.33;;;13.00;99.90;;;;;;481618;246;28341;-77
2021/09/27 06:18:25;;;;;;;5.30;4.73;;;13.00;99.90;;;;;;481409;246;28672;-77
2021/09/27 06:20:25;;;;;;;5.00;4.50;;;13.10;99.90;;;;;;481344;246;28893;-77
2021/09/27 06:22:26;;;;;;;5.57;5.07;;;13.10;99.90;;;;;;486898;242;28680;-77
2021/09/27 06:24:27;;;;;;;4.20;3.80;;;13.20;99.90;;;;;;486300;244;28861;-79
2021/09/27 06:26:28;;;;;;;4.57;4.17;;;13.30;99.90;;;;;;490997;242;27937;-77
2021/09/27 06:28:30;;;;;;;5.67;4.80;;;13.40;99.90;;;;;;486489;244;28675;-77
2021/09/27 06:30:31;;;;;;;4.43;4.03;;;13.40;99.90;;;;;;490952;241;27943;-77
2021/09/27 06:32:32;;;;;;;4.10;3.80;;;13.50;99.90;;;;;;486483;240;28420;-76
2021/09/27 06:34:33;;;;;;;4.30;3.90;;;13.60;99.90;;;;;;490963;242;28800;-78
2021/09/27 06:36:35;;;;;;;4.57;4.17;;;13.70;99.90;;;;;;486369;240;28603;-77
2021/09/27 06:38:36;;;;;;;7.90;4.90;;;13.70;99.90;;;;;;490831;242;28191;-76
2021/09/27 06:40:37;;;;;;;6.67;5.07;;;13.90;99.90;;;;;;486325;240;28663;-76
2021/09/27 06:42:38;;;;;;;7.83;5.20;;;13.90;99.90;;;;;;490857;241;28702;-76
2021/09/27 06:44:44;;;;;;;7.33;5.30;;;13.90;99.90;;;;;;486368;244;28807;-77
2021/09/27 06:46:41;;;;;;;5.77;5.17;;;14.00;99.90;;;;;;490401;242;28601;-76
2021/09/27 06:48:42;;;;;;;6.23;4.87;;;14.10;99.90;;;;;;486354;244;28160;-76
2021/09/27 06:50:43;;;;;;;5.73;5.10;;;14.20;99.90;;;;;;490914;241;28173;-77
2021/09/27 06:52:45;;;;;;;6.73;4.87;;;14.20;99.90;;;;;;486319;244;28175;-76
2021/09/27 06:54:46;;;;;;;4.83;4.33;;;14.30;99.90;;;;;;490849;242;28042;-76
2021/09/27 06:56:47;;;;;;;5.33;4.83;;;14.30;99.90;;;;;;486333;244;28262;-77
2021/09/27 06:58:48;;;;;;;5.70;4.97;;;14.40;99.90;;;;;;490832;241;28381;-77
2021/09/27 07:00:50;;;;;;;5.43;4.60;;;14.40;99.90;;;;;;486294;244;28365;-77
2021/09/27 07:02:51;;;;;;;4.30;3.90;;;14.50;99.90;;;;;;490741;242;28393;-77
2021/09/27 07:04:52;;;;;;;4.70;4.30;;;14.60;99.90;;;;;;486240;244;28798;-77
2021/09/27 07:06:53;;;;;;;4.73;4.23;;;14.60;99.90;;;;;;490736;242;28623;-77
2021/09/27 07:08:55;;;;;;;5.10;4.60;;;14.60;99.90;;;;;;486266;244;28916;-76
2021/09/27 07:10:56;;;;;;;5.37;4.87;;;14.70;99.90;;;;;;490766;242;28270;-77
2021/09/27 07:12:57;;;;;;;5.60;5.10;;;14.70;99.90;;;;;;486242;244;28578;-76
2021/09/27 07:14:58;;;;;;;5.23;4.50;;;14.60;99.90;;;;;;490756;241;28461;-77
2021/09/27 07:17:00;;;;;;;4.43;4.03;;;14.60;99.90;;;;;;486276;244;28353;-76
2021/09/27 07:19:01;;;;;;;4.57;4.17;;;14.60;99.90;;;;;;490765;241;28510;-76
2021/09/27 07:21:02;;;;;;;5.33;4.83;;;14.50;99.90;;;;;;486210;244;28471;-76
2021/09/27 07:23:03;;;;;;;5.67;4.60;;;14.50;99.90;;;;;;490727;241;28274;-77
2021/09/27 07:25:05;;;;;;;5.30;4.80;;;14.50;99.90;;;;;;486240;240;28323;-75
2021/09/27 07:27:06;;;;;;;6.40;4.70;;;14.50;99.90;;;;;;490771;241;28369;-76
2021/09/27 07:29:07;;;;;;;6.27;5.20;;;14.60;99.90;;;;;;486270;244;28727;-77
2021/09/27 07:31:08;;;;;;;5.30;4.63;;;14.60;99.90;;;;;;490697;242;28900;-75
2021/09/27 07:33:10;;;;;;;5.80;5.30;;;14.70;99.90;;;;;;486263;244;29146;-77
2021/09/27 07:35:11;;;;;;;5.90;5.30;;;14.70;99.90;;;;;;490763;242;28973;-76
2021/09/27 07:37:12;;;;;;;5.80;4.70;;;14.90;99.90;;;;;;486242;244;28526;-76
2021/09/27 07:39:13;;;;;;;5.50;4.53;;;15.00;99.90;;;;;;490764;241;28417;-76
2021/09/27 07:41:15;;;;;;;4.87;4.40;;;15.10;99.90;;;;;;486244;244;28422;-76
2021/09/27 07:43:16;;;;;;;4.70;4.30;;;15.20;99.90;;;;;;490741;242;28768;-76
2021/09/27 07:45:17;;;;;;;5.57;4.93;;;15.30;99.90;;;;;;486262;244;28489;-76
2021/09/27 07:47:18;;;;;;;4.83;4.30;;;15.30;99.90;;;;;;490797;242;28255;-76
2021/09/27 07:49:20;;;;;;;5.27;4.47;;;15.30;99.90;;;;;;486230;244;28499;-76
2021/09/27 07:51:21;;;;;;;4.40;4.00;;;15.40;99.90;;;;;;490744;242;29214;-76
2021/09/27 07:53:22;;;;;;;4.50;4.10;;;15.40;99.90;;;;;;486256;244;29213;-76
2021/09/27 07:55:23;;;;;;;5.17;4.33;;;15.40;99.90;;;;;;490795;241;29192;-76
2021/09/27 07:57:25;;;;;;;4.70;4.30;;;15.40;99.90;;;;;;486283;244;28857;-76
2021/09/27 07:59:26;;;;;;;5.30;3.97;;;15.40;99.90;;;;;;490756;242;28724;-76
2021/09/27 08:01:27;;;;;;;5.00;4.13;;;15.50;99.90;;;;;;486264;244;28762;-76
2021/09/27 08:03:28;;;;;;;4.43;4.03;;;15.50;99.90;;;;;;490767;241;28672;-76
2021/09/27 08:05:30;;;;;;;3.40;3.13;;;15.50;99.90;;;;;;486248;244;28800;-76
2021/09/27 08:07:31;;;;;;;4.70;4.30;;;15.40;99.90;;;;;;490776;242;28752;-75
2021/09/27 08:09:32;;;;;;;4.47;4.07;;;15.40;99.90;;;;;;486261;244;28859;-76
2021/09/27 08:11:33;;;;;;;4.27;3.97;;;15.50;99.90;;;;;;490790;242;29363;-76
2021/09/27 08:13:35;;;;;;;5.07;4.27;;;15.60;99.90;;;;;;486286;244;29297;-75
2021/09/27 08:15:36;;;;;;;6.20;4.40;;;15.70;99.90;;;;;;490822;241;29258;-75
2021/09/27 08:17:37;;;;;;;4.80;4.40;;;15.70;99.90;;;;;;486291;244;29284;-76
2021/09/27 08:19:42;;;;;;;4.17;3.87;;;15.70;99.90;;;;;;490747;242;28835;-76
2021/09/27 08:21:40;;;;;;;4.70;4.30;;;15.70;99.90;;;;;;485981;244;28789;-76
2021/09/27 08:23:41;;;;;;;4.77;4.27;;;15.70;99.90;;;;;;490720;242;28759;-76
2021/09/27 08:25:42;;;;;;;6.63;4.73;;;15.80;99.90;;;;;;486253;244;28777;-76
2021/09/27 08:27:46;;;;;;;4.50;4.10;;;15.90;99.90;;;;;;490734;242;28775;-75
2021/09/27 08:29:45;;;;;;;4.57;3.77;;;16.10;99.90;;;;;;490538;242;28750;-76
2021/09/27 08:31:46;;;;;;;4.67;4.27;;;16.20;99.90;;;;;;486311;244;28888;-77
2021/09/27 08:33:47;;;;;;;3.93;3.53;;;16.30;99.90;;;;;;490793;242;28681;-76
2021/09/27 08:35:48;;;;;;;4.47;4.03;;;16.40;99.90;;;;;;486171;244;30077;-76
2021/09/27 08:37:50;;;;;;;4.33;3.93;;;16.40;99.90;;;;;;490764;241;30045;-76
2021/09/27 08:39:51;;;;;;;4.47;4.00;;;16.40;99.90;;;;;;486283;244;29204;-75
2021/09/27 08:41:52;;;;;;;4.63;4.23;;;16.40;99.90;;;;;;490802;241;28716;-76
2021/09/27 08:43:53;;;;;;;6.43;4.80;;;16.40;99.90;;;;;;486236;244;28740;-75
2021/09/27 08:45:55;;;;;;;4.30;3.77;;;16.40;99.90;;;;;;490752;242;28815;-76
2021/09/27 08:47:56;;;;;;;5.03;4.63;;;16.40;99.90;;;;;;486226;240;28761;-75
2021/09/27 08:49:58;;;;;;;4.80;4.40;;;16.60;99.90;;;;;;490752;241;28670;-75
2021/09/27 08:51:58;;;;;;;4.63;4.13;;;16.60;99.90;;;;;;486245;240;28880;-76
2021/09/27 08:54:00;;;;;;;5.00;4.50;;;16.70;99.90;;;;;;490757;242;28847;-76
2021/09/27 08:56:01;;;;;;;4.40;4.00;;;16.60;99.90;;;;;;486234;244;28947;-77
2021/09/27 08:58:02;;;;;;;4.27;3.87;;;16.50;99.90;;;;;;490767;242;28732;-76
2021/09/27 09:00:03;;;;;;;4.70;4.17;;;16.40;99.90;;;;;;486238;244;29196;-76
2021/09/27 09:02:05;;;;;;;4.43;4.03;;;16.40;99.90;;;;;;490761;241;29196;-76
2021/09/27 09:04:07;;;;;;;4.40;4.00;;;16.40;99.90;;;;;;486249;244;29331;-76
2021/09/27 09:06:07;;;;;;;4.10;3.80;;;16.50;99.90;;;;;;490699;241;28800;-76
2021/09/27 09:08:08;;;;;;;3.73;3.43;;;16.50;99.90;;;;;;486264;244;28801;-76
2021/09/27 09:10:10;;;;;;;3.63;3.33;;;16.60;99.90;;;;;;490667;242;28733;-76
2021/09/27 09:12:11;;;;;;;4.10;3.70;;;16.70;99.90;;;;;;486240;244;28781;-76
2021/09/27 09:14:12;;;;;;;5.63;4.13;;;16.80;99.90;;;;;;490727;241;28695;-76
2021/09/27 09:16:13;;;;;;;4.00;3.70;;;16.80;99.90;;;;;;486259;244;28802;-75
2021/09/27 09:18:15;;;;;;;4.67;4.00;;;16.90;99.90;;;;;;490766;242;28716;-77
2021/09/27 09:20:16;;;;;;;4.43;4.03;;;17.00;99.90;;;;;;486238;244;28879;-76
2021/09/27 09:22:17;;;;;;;4.13;3.73;;;17.10;99.90;;;;;;490745;239;28677;-76
2021/09/27 09:24:18;;;;;;;4.30;3.90;;;17.20;99.90;;;;;;485700;244;29325;-76
2021/09/27 09:26:20;;;;;;;4.93;3.80;;;17.30;99.90;;;;;;475241;249;29417;-77
2021/09/27 09:28:21;;;;;;;3.87;3.57;;;17.40;99.90;;;;;;483785;245;29265;-76
2021/09/27 09:30:22;;;;;;;4.90;4.33;;;17.50;99.90;;;;;;475197;248;28872;-76
2021/09/27 09:32:24;;;;;;;3.60;3.30;;;17.60;99.90;;;;;;483730;245;28778;-76
2021/09/27 09:34:27;;;;;;;6.60;4.10;;;17.70;99.90;;;;;;475172;249;28787;-76
2021/09/27 09:36:26;;;;;;;3.70;3.40;;;17.70;99.90;;;;;;483627;246;28816;-77
2021/09/27 09:38:27;;;;;;;5.93;3.93;;;17.80;99.90;;;;;;475238;248;28797;-77
2021/09/27 09:40:28;;;;;;;3.47;3.17;;;17.80;99.90;;;;;;483772;245;28763;-76
2021/09/27 09:42:30;;;;;;;3.87;3.57;;;17.80;99.90;;;;;;475209;247;28808;-76
2021/09/27 09:44:31;;;;;;;3.37;3.07;;;17.90;99.90;;;;;;483766;245;28778;-76
2021/09/27 09:46:32;;;;;;;4.20;3.80;;;17.90;99.90;;;;;;475252;246;28756;-76
2021/09/27 09:48:34;;;;;;;3.13;2.87;;;17.90;99.90;;;;;;483765;246;29334;-76
2021/09/27 09:50:35;;;;;;;3.23;3.00;;;18.00;99.90;;;;;;475207;250;29305;-76
2021/09/27 09:52:36;;;;;;;3.67;3.40;;;18.00;99.90;;;;;;483777;245;29352;-76
2021/09/27 09:54:38;;;;;;;5.50;3.57;;;18.10;99.90;;;;;;475216;249;29404;-76
2021/09/27 09:56:39;;;;;;;4.73;3.57;;;18.10;99.90;;;;;;483758;246;28834;-76
2021/09/27 09:58:40;;;;;;;3.90;3.60;;;18.10;99.90;;;;;;475202;249;28856;-77
2021/09/27 10:00:42;;;;;;;3.70;3.40;;;18.10;99.90;;;;;;483756;246;28830;-76
2021/09/27 10:02:42;;;;;;;3.90;3.60;;;17.90;99.90;;;;;;475138;246;28877;-76
2021/09/27 10:04:44;;;;;;;3.20;2.70;;;17.90;99.90;;;;;;483784;245;28817;-77
2021/09/27 10:06:45;;;;;;;3.00;2.70;;;17.90;99.90;;;;;;475223;249;28746;-76
2021/09/27 10:08:46;;;;;;;3.93;3.50;;;18.00;99.90;;;;;;483762;245;28773;-76
2021/09/27 10:10:47;;;;;;;3.73;3.43;;;18.00;99.90;;;;;;475244;246;28742;-76
2021/09/27 10:12:49;;;;;;;3.40;3.10;;;18.10;99.90;;;;;;483791;245;29301;-76
2021/09/27 10:14:50;;;;;;;3.60;3.10;;;18.20;99.90;;;;;;475230;248;29279;-77
2021/09/27 10:16:51;;;;;;;4.90;3.20;;;18.30;99.90;;;;;;483777;246;29229;-76
2021/09/27 10:18:52;;;;;;;3.40;3.10;;;18.40;99.90;;;;;;475223;246;29248;-77
2021/09/27 10:20:54;;;;;;;3.43;3.13;;;18.40;99.90;;;;;;483808;245;28806;-76
2021/09/27 10:22:55;;;;;;;3.63;3.30;;;18.50;99.90;;;;;;475240;249;28758;-76
2021/09/27 10:24:56;;;;;;;3.20;3.00;;;18.60;99.90;;;;;;483786;246;28798;-76
2021/09/27 10:26:57;;;;;;;5.07;3.03;;;18.60;99.90;;;;;;475259;246;28816;-76
2021/09/27 10:28:59;;;;;;;4.03;3.50;;;18.70;99.90;;;;;;483783;245;28785;-76
2021/09/27 10:31:00;;;;;;;3.47;3.17;;;18.70;99.90;;;;;;475256;249;29151;-76